Time;durP1;ratioP1;P1;durP2;ratioP2;P2;SDS_P1;SDS_P2;PMS_P1;PMS_P2;Temp;Humidity;BMP_temperature;BMP_pressure;BME280_temperature;BME280_humidity;BME280_pressure;Samples;Min_cycle;Max_cycle;Signal;HPM_P1;HPM_P2
2022/04/23 00:04:22;;;;;;;9.15;5.78;;;;;;;10.73;83.27;100577.44;10377364;28;20049;-72
2022/04/23 00:09:22;;;;;;;7.68;6.35;;;;;;;10.65;83.12;100569.50;10376750;28;20493;-74
2022/04/23 00:14:23;;;;;;;6.57;5.97;;;;;;;10.60;83.12;100574.72;10375561;28;20440;-74
2022/04/23 00:19:23;;;;;;;6.05;5.47;;;;;;;10.57;84.34;100572.41;10376022;28;20085;-74
2022/04/23 00:24:23;;;;;;;6.53;5.07;;;;;;;10.56;84.48;100563.47;10374691;28;20030;-74
2022/04/23 00:29:24;;;;;;;9.68;5.25;;;;;;;10.58;84.13;100561.38;10373056;28;20077;-74
2022/04/23 00:34:25;;;;;;;7.35;6.65;;;;;;;10.54;85.46;100572.81;10374785;28;20038;-74
2022/04/23 00:39:26;;;;;;;6.15;5.55;;;;;;;10.45;85.35;100566.75;10356732;28;20053;-74
2022/04/23 00:44:26;;;;;;;7.78;6.40;;;;;;;10.46;85.75;100563.00;10390175;28;20382;-74
2022/04/23 00:49:27;;;;;;;7.22;6.53;;;;;;;10.41;86.32;100558.22;10375093;28;20041;-74
2022/04/23 00:54:27;;;;;;;6.18;5.57;;;;;;;10.34;86.57;100557.38;10374370;28;20040;-74
2022/04/23 00:59:28;;;;;;;9.02;7.80;;;;;;;10.28;87.34;100547.38;10381124;28;20034;-74
2022/04/23 01:04:30;;;;;;;10.07;7.18;;;;;;;10.23;88.02;100555.22;10397603;28;20374;-78
2022/04/23 01:09:31;;;;;;;7.47;5.97;;;;;;;10.12;88.65;100551.25;10384653;28;20091;-74
2022/04/23 01:14:31;;;;;;;10.05;7.28;;;;;;;10.08;89.28;100543.72;10395873;28;20089;-74
2022/04/23 01:19:32;;;;;;;7.13;6.50;;;;;;;10.01;89.76;100549.94;10383071;28;20037;-74
2022/04/23 01:24:32;;;;;;;10.30;6.80;;;;;;;9.98;90.72;100554.91;10380501;28;20034;-74
2022/04/23 01:29:33;;;;;;;11.80;7.40;;;;;;;9.98;90.58;100547.63;10395590;28;20038;-73
2022/04/23 01:34:33;;;;;;;11.88;8.20;;;;;;;9.93;91.54;100550.13;10362969;28;20030;-74
2022/04/23 01:39:34;;;;;;;21.23;8.60;;;;;;;9.90;91.79;100552.41;10382442;28;20054;-74
2022/04/23 01:44:35;;;;;;;8.88;7.95;;;;;;;9.85;91.84;100555.69;10362510;28;20077;-74
2022/04/23 01:49:35;;;;;;;15.65;9.00;;;;;;;9.80;92.37;100555.47;10379762;28;20038;-75
2022/04/23 01:54:35;;;;;;;7.53;6.68;;;;;;;9.76;92.30;100562.31;10379344;28;20450;-74
2022/04/23 01:59:36;;;;;;;9.48;8.55;;;;;;;9.70;93.24;100563.97;10378821;28;20096;-74
2022/04/23 02:04:36;;;;;;;10.35;9.38;;;;;;;9.61;94.56;100556.22;10380315;28;20042;-74
2022/04/23 02:09:37;;;;;;;10.88;8.13;;;;;;;9.60;93.92;100568.03;10381203;28;20065;-74
2022/04/23 02:14:37;;;;;;;11.57;10.50;;;;;;;9.54;95.40;100565.13;10378740;28;20485;-74
2022/04/23 02:19:37;;;;;;;12.35;9.18;;;;;;;9.52;94.97;100552.84;10377363;28;20120;-74
2022/04/23 02:24:38;;;;;;;13.00;10.13;;;;;;;9.48;95.24;100554.28;10378313;28;20026;-74
2022/04/23 02:29:39;;;;;;;13.20;9.13;;;;;;;9.45;95.13;100552.81;10378270;28;20041;-74
2022/04/23 02:34:39;;;;;;;17.35;10.40;;;;;;;9.34;97.25;100566.03;10377776;28;20038;-74
2022/04/23 02:39:40;;;;;;;11.77;10.57;;;;;;;9.33;97.31;100565.19;10375389;28;20081;-74
2022/04/23 02:44:40;;;;;;;12.38;11.07;;;;;;;9.29;97.68;100567.47;10377620;28;20045;-75
2022/04/23 02:49:41;;;;;;;15.77;11.52;;;;;;;9.26;98.76;100569.72;10377073;28;20394;-74
2022/04/23 02:54:41;;;;;;;15.50;11.10;;;;;;;9.25;98.55;100570.72;10358885;28;20049;-73
2022/04/23 02:59:41;;;;;;;14.55;11.05;;;;;;;9.22;99.12;100569.28;10359048;28;20041;-74
2022/04/23 03:04:43;;;;;;;22.67;13.63;;;;;;;9.24;98.81;100569.91;10377449;28;20124;-74
2022/04/23 03:09:43;;;;;;;15.18;12.43;;;;;;;9.18;99.93;100559.88;10359012;28;20038;-75
2022/04/23 03:14:45;;;;;;;19.15;14.05;;;;;;;9.26;98.91;100572.41;10375896;28;20038;-73
2022/04/23 03:19:47;;;;;;;19.60;14.18;;;;;;;9.23;99.61;100564.72;10375465;28;20038;-74
2022/04/23 03:24:47;;;;;;;18.45;15.43;;;;;;;9.19;100.00;100560.72;10374449;28;20033;-74
2022/04/23 03:29:48;;;;;;;20.38;13.30;;;;;;;9.21;100.00;100555.94;10375392;28;20040;-74
2022/04/23 03:34:48;;;;;;;19.65;15.52;;;;;;;9.30;100.00;100557.47;10373898;28;20468;-74
2022/04/23 03:39:49;;;;;;;19.67;15.10;;;;;;;9.36;99.58;100553.97;10359394;28;20050;-74
2022/04/23 03:44:49;;;;;;;21.70;13.98;;;;;;;9.30;100.00;100560.19;10380634;28;20033;-73
2022/04/23 03:49:50;;;;;;;19.85;14.63;;;;;;;9.36;100.00;100551.28;10382255;28;20038;-76
2022/04/23 03:54:51;;;;;;;19.70;16.40;;;;;;;9.39;99.88;100548.19;10382474;28;20038;-74
2022/04/23 03:59:52;;;;;;;22.67;16.77;;;;;;;9.33;100.00;100548.97;10380623;28;20093;-73
2022/04/23 04:04:52;;;;;;;23.70;20.30;;;;;;;9.23;100.00;100543.91;10376137;28;20200;-73
2022/04/23 04:09:53;;;;;;;22.35;16.33;;;;;;;9.11;100.00;100544.66;10376328;28;20037;-74
2022/04/23 04:14:53;;;;;;;26.27;18.42;;;;;;;9.06;100.00;100531.72;10374501;28;20026;-73
2022/04/23 04:19:54;;;;;;;20.70;14.48;;;;;;;8.98;100.00;100530.03;10375163;28;20600;-74
2022/04/23 04:24:54;;;;;;;19.25;16.58;;;;;;;8.96;100.00;100529.38;10374229;28;20034;-74
2022/04/23 04:29:54;;;;;;;21.42;17.45;;;;;;;8.95;100.00;100513.38;10374172;28;20038;-75
2022/04/23 04:34:55;;;;;;;30.17;18.52;;;;;;;9.01;100.00;100526.09;10379496;28;20117;-76
2022/04/23 04:39:55;;;;;;;20.27;18.00;;;;;;;9.03;100.00;100524.88;10382452;28;20193;-75
2022/04/23 04:44:56;;;;;;;19.58;15.30;;;;;;;9.04;100.00;100520.31;10382284;28;20033;-74
2022/04/23 04:49:56;;;;;;;38.63;22.95;;;;;;;9.15;100.00;100527.03;10364657;28;20044;-74
2022/04/23 04:54:56;;;;;;;24.23;17.73;;;;;;;9.25;100.00;100527.50;10381685;28;20158;-74
2022/04/23 04:59:57;;;;;;;21.85;19.08;;;;;;;9.36;100.00;100523.44;10379770;28;20038;-74
2022/04/23 05:04:57;;;;;;;20.52;18.30;;;;;;;9.38;100.00;100533.00;10380797;28;20092;-74
2022/04/23 05:10:00;;;;;;;23.27;20.40;;;;;;;9.42;100.00;100539.69;10368356;28;20108;-75
2022/04/23 05:15:00;;;;;;;24.38;18.52;;;;;;;9.46;100.00;100545.53;10351710;28;20454;-74
2022/04/23 05:20:00;;;;;;;23.42;20.98;;;;;;;9.53;100.00;100539.09;10381158;28;20092;-74
2022/04/23 05:25:01;;;;;;;26.33;22.05;;;;;;;9.65;100.00;100541.25;10380155;28;20129;-74
2022/04/23 05:30:01;;;;;;;25.77;21.80;;;;;;;9.73;100.00;100541.06;10380606;28;20064;-74
2022/04/23 05:35:02;;;;;;;27.13;21.52;;;;;;;9.84;100.00;100547.81;10378484;28;20129;-75
2022/04/23 05:40:02;;;;;;;23.60;20.60;;;;;;;10.36;100.00;100541.75;10380279;28;20072;-74
2022/04/23 05:45:03;;;;;;;22.92;19.88;;;;;;;11.17;95.40;100538.06;10360988;28;20061;-76
2022/04/23 05:50:04;;;;;;;23.10;19.92;;;;;;;11.60;92.85;100548.38;10381703;28;20076;-75
2022/04/23 05:55:05;;;;;;;21.52;19.15;;;;;;;11.88;90.71;100545.41;10378140;28;20044;-75
2022/04/23 06:00:07;;;;;;;31.05;19.55;;;;;;;12.17;88.38;100557.59;10378011;28;20038;-75
2022/04/23 06:05:08;;;;;;;23.38;17.05;;;;;;;12.34;86.62;100550.59;10361075;28;20038;-76
2022/04/23 06:10:08;;;;;;;26.48;19.70;;;;;;;12.48;86.00;100551.38;10361310;28;20496;-75
2022/04/23 06:15:09;;;;;;;23.75;18.80;;;;;;;12.48;85.82;100542.41;10378560;28;20030;-75
2022/04/23 06:20:10;;;;;;;27.80;18.05;;;;;;;12.78;84.55;100557.00;10377175;28;20081;-74
2022/04/23 06:25:10;;;;;;;20.95;18.63;;;;;;;12.89;83.66;100527.44;10377754;28;20081;-75
2022/04/23 06:30:11;;;;;;;19.98;17.25;;;;;;;13.14;82.04;100547.28;10377551;28;20038;-74
2022/04/23 06:35:11;;;;;;;18.50;16.70;;;;;;;13.16;81.93;100542.47;10376496;28;20120;-75
2022/04/23 06:40:13;;;;;;;22.55;16.98;;;;;;;13.49;80.50;100527.75;10376713;28;20457;-74
2022/04/23 06:45:13;;;;;;;22.42;16.73;;;;;;;13.76;79.17;100516.56;10377774;28;20504;-75
2022/04/23 06:50:13;;;;;;;22.10;14.57;;;;;;;13.90;77.37;100531.66;10359382;28;20092;-74
2022/04/23 06:55:14;;;;;;;20.05;15.65;;;;;;;14.10;76.74;100534.97;10377101;28;20041;-74
2022/04/23 07:00:14;;;;;;;19.08;15.30;;;;;;;14.26;76.93;100524.50;10375760;28;20045;-74
2022/04/23 07:05:15;;;;;;;33.45;18.02;;;;;;;14.40;75.98;100521.34;10358555;28;20022;-76
2022/04/23 07:10:15;;;;;;;25.80;16.60;;;;;;;14.78;74.40;100528.34;10360139;28;20053;-76
2022/04/23 07:15:15;;;;;;;18.40;15.40;;;;;;;15.10;72.96;100517.13;10299037;28;20038;-75
2022/04/23 07:20:16;;;;;;;18.73;15.52;;;;;;;15.41;70.49;100521.41;10336869;28;20061;-75
2022/04/23 07:25:17;;;;;;;21.95;14.65;;;;;;;15.24;70.84;100518.53;10335860;28;20074;-81
2022/04/23 07:30:17;;;;;;;16.60;14.95;;;;;;;15.31;70.61;100511.06;10318566;28;20038;-74
2022/04/23 07:40:40;;;;;;;17.98;15.77;;;;;;;15.88;68.06;100501.38;10336435;28;20054;-74
2022/04/23 07:45:41;;;;;;;12.82;11.60;;;;;;;16.16;67.17;100500.56;10333126;28;20038;-74
2022/04/23 07:50:42;;;;;;;15.10;11.93;;;;;;;16.13;67.01;100492.84;10333544;28;20030;-75
2022/04/23 07:55:43;;;;;;;15.25;13.85;;;;;;;16.51;65.22;100498.47;10333902;28;20405;-75
2022/04/23 08:00:45;;;;;;;16.25;14.65;;;;;;;16.56;64.18;100496.91;10334253;28;20045;-77
2022/04/23 08:05:45;;;;;;;14.73;12.95;;;;;;;16.97;63.75;100484.75;10333514;28;20053;-75
2022/04/23 08:10:46;;;;;;;15.18;13.55;;;;;;;16.70;63.68;100474.47;10332837;28;20129;-75
2022/04/23 08:15:47;;;;;;;13.95;12.60;;;;;;;17.18;61.42;100475.78;10333525;28;20034;-75
2022/04/23 08:20:47;;;;;;;16.33;14.65;;;;;;;17.41;59.36;100502.09;10315860;28;20042;-75
2022/04/23 08:25:47;;;;;;;18.70;14.73;;;;;;;17.28;60.21;100466.88;10333407;28;20089;-76
2022/04/23 08:30:48;;;;;;;15.63;14.07;;;;;;;17.50;59.03;100466.91;10331949;28;20089;-75
2022/04/23 08:35:50;;;;;;;15.07;13.50;;;;;;;17.61;58.57;100473.34;10332019;28;20034;-74
2022/04/23 08:40:50;;;;;;;14.52;12.60;;;;;;;17.91;56.70;100483.88;10299612;28;20034;-75
2022/04/23 08:45:50;;;;;;;15.40;13.82;;;;;;;17.81;57.48;100462.69;10331648;28;20475;-74
2022/04/23 08:50:51;;;;;;;21.48;12.18;;;;;;;18.17;56.21;100457.56;10333253;28;20049;-75
2022/04/23 08:55:51;;;;;;;12.20;11.05;;;;;;;18.28;56.20;100433.81;10298894;28;20037;-76
2022/04/23 09:00:52;;;;;;;16.27;13.35;;;;;;;18.54;54.49;100445.88;10315627;28;20504;-75
2022/04/23 09:05:52;;;;;;;15.85;12.68;;;;;;;18.60;53.62;100439.31;10332912;28;20041;-75
2022/04/23 09:10:55;;;;;;;15.02;11.73;;;;;;;19.40;52.26;100439.28;10332975;28;20105;-75
2022/04/23 09:26:44;;;;;;;13.43;12.02;;;;;;;18.25;54.82;100448.03;10339238;28;20034;-76
2022/04/23 09:31:45;;;;;;;16.92;14.40;;;;;;;18.34;54.52;100455.53;10305598;28;20072;-73
2022/04/23 09:36:49;;;;;;;19.98;14.13;;;;;;;18.11;54.32;100440.25;10338885;28;20380;-74
2022/04/23 09:41:49;;;;;;;15.73;12.82;;;;;;;17.49;55.19;100454.31;10338622;28;20529;-74
2022/04/23 09:46:50;;;;;;;14.15;12.77;;;;;;;16.64;58.27;100442.66;10337142;28;20090;-73
2022/04/23 09:52:09;;;;;;;14.52;11.38;;;;;;;16.59;57.95;100448.06;10338605;28;20027;-73
2022/04/23 09:57:09;;;;;;;14.70;13.00;;;;;;;16.89;57.64;100466.88;10338793;28;20462;-74
2022/04/23 10:02:10;;;;;;;14.55;13.05;;;;;;;16.28;60.19;100461.19;10321398;28;20125;-74
2022/04/23 10:07:10;;;;;;;15.25;13.48;;;;;;;16.36;60.20;100457.22;10320384;28;20042;-75
2022/04/23 10:12:12;;;;;;;17.48;12.80;;;;;;;16.60;59.17;100440.69;10321629;28;20061;-75
2022/04/23 10:17:20;;;;;;;15.73;14.13;;;;;;;16.75;59.06;100443.66;10319521;28;20470;-75
2022/04/23 10:22:44;;;;;;;16.50;13.93;;;;;;;17.12;57.71;100449.44;10337667;28;20388;-74
2022/04/23 10:27:45;;;;;;;17.73;14.52;;;;;;;17.44;57.55;100455.06;10319294;28;20459;-76
2022/04/23 10:32:46;;;;;;;18.88;13.55;;;;;;;17.87;56.04;100438.91;10336775;28;20031;-74
2022/04/23 10:37:49;;;;;;;19.55;13.38;;;;;;;17.73;56.35;100434.88;10335359;28;20450;-75
2022/04/23 10:43:06;;;;;;;15.65;13.90;;;;;;;17.64;55.34;100432.59;10335524;28;20478;-74
2022/04/23 10:48:22;;;;;;;16.15;13.73;;;;;;;17.78;55.66;100434.97;10335969;28;20451;-76
2022/04/23 10:53:43;;;;;;;12.43;10.40;;;;;;;18.01;54.39;100436.59;10334560;28;20453;-75
2022/04/23 10:58:43;;;;;;;19.42;13.32;;;;;;;17.78;54.95;100424.03;10324940;28;20486;-75
2022/04/23 11:03:44;;;;;;;15.30;13.45;;;;;;;17.30;57.13;100426.41;10336841;28;20038;-75
2022/04/23 11:14:44;;;;;;;19.30;13.80;;;;;;;17.16;57.38;100423.22;10334408;28;20418;-75
2022/04/23 11:19:45;;;;;;;22.20;16.60;;;;;;;17.17;58.23;100413.13;10333178;28;20053;-75
2022/04/23 11:24:47;;;;;;;12.77;11.50;;;;;;;17.34;57.58;100411.13;10317893;28;20044;-75
2022/04/23 11:29:51;;;;;;;18.25;15.75;;;;;;;17.38;56.97;100411.47;10317514;28;20378;-74
2022/04/23 11:35:04;;;;;;;15.77;14.13;;;;;;;18.34;55.00;100413.59;10334808;28;20031;-73
2022/04/23 11:40:09;;;;;;;19.52;12.85;;;;;;;17.96;56.14;100392.69;10332700;28;20548;-72
2022/04/23 11:45:13;;;;;;;17.05;14.60;;;;;;;18.07;54.82;100392.53;10316828;28;20117;-74
2022/04/23 11:50:17;;;;;;;16.75;14.80;;;;;;;19.84;49.07;100378.50;10318871;28;20031;-75
2022/04/23 11:55:22;;;;;;;27.17;14.80;;;;;;;20.29;45.46;100382.41;10332732;28;20438;-75
2022/04/23 12:00:24;;;;;;;15.88;13.25;;;;;;;20.49;47.52;100389.84;10284174;28;20117;-76
2022/04/23 12:05:28;;;;;;;14.52;12.95;;;;;;;21.02;46.51;100391.13;10334228;28;20057;-78
2022/04/23 12:10:32;;;;;;;23.08;14.98;;;;;;;20.77;47.06;100385.69;10332574;28;20034;-76
2022/04/23 12:15:33;;;;;;;18.05;13.50;;;;;;;20.54;45.46;100385.16;10333289;28;20034;-76
2022/04/23 12:20:35;;;;;;;25.65;15.90;;;;;;;20.13;46.92;100382.41;10332035;28;20030;-76
2022/04/23 12:25:36;;;;;;;17.88;13.82;;;;;;;21.01;45.77;100367.47;10332728;28;20467;-78
2022/04/23 12:41:14;;;;;;;19.13;16.35;;;;;;;21.11;43.93;100339.09;10331711;28;20038;-76
2022/04/23 12:46:14;;;;;;;16.35;14.65;;;;;;;20.77;45.22;100364.53;10316778;28;20440;-77
2022/04/23 12:51:15;;;;;;;16.67;15.02;;;;;;;20.21;45.64;100346.13;10314620;28;20406;-77
2022/04/23 12:56:16;;;;;;;16.83;15.00;;;;;;;20.69;45.03;100369.75;10340245;28;20054;-77
2022/04/23 13:01:17;;;;;;;15.15;13.55;;;;;;;20.96;44.74;100347.38;10340544;28;20038;-75
2022/04/23 13:11:36;;;;;;;19.30;16.08;;;;;;;21.57;43.64;100323.19;10339526;28;20521;-73
2022/04/23 13:16:38;;;;;;;20.13;14.65;;;;;;;21.59;43.93;100309.94;10338972;28;20112;-76
2022/04/23 13:21:38;;;;;;;19.58;16.05;;;;;;;21.47;42.93;100297.63;10342403;28;20037;-75
2022/04/23 13:26:38;;;;;;;25.77;14.90;;;;;;;21.38;43.34;100322.22;10342319;28;20117;-76
2022/04/23 13:31:39;;;;;;;15.85;13.43;;;;;;;21.44;42.81;100309.22;10339409;28;20026;-76
2022/04/23 13:36:40;;;;;;;15.10;12.38;;;;;;;20.70;45.20;100310.88;10339702;28;20438;-76
2022/04/23 13:41:40;;;;;;;20.38;14.43;;;;;;;20.74;45.22;100304.53;10340230;28;20035;-76
2022/04/23 13:46:40;;;;;;;22.27;13.10;;;;;;;21.10;43.66;100305.22;10338657;28;20034;-74
2022/04/23 13:51:41;;;;;;;17.92;13.82;;;;;;;21.47;43.87;100295.69;10337116;28;20069;-73
2022/04/23 13:56:42;;;;;;;17.45;13.38;;;;;;;20.11;46.49;100287.56;10337055;28;20041;-75
2022/04/23 14:12:22;;;;;;;20.45;14.35;;;;;;;19.55;46.12;100285.56;10337050;28;20030;-74
2022/04/23 14:17:22;;;;;;;23.45;14.98;;;;;;;19.51;46.83;100293.53;10337572;28;20042;-75
2022/04/23 14:22:23;;;;;;;19.98;13.93;;;;;;;20.33;45.68;100287.28;10337224;28;20034;-75
2022/04/23 14:27:23;;;;;;;16.83;13.95;;;;;;;20.63;43.87;100273.47;10336849;28;20057;-74
2022/04/23 14:32:24;;;;;;;14.60;13.10;;;;;;;20.12;45.26;100269.97;10337961;28;20509;-73
2022/04/23 14:37:24;;;;;;;18.25;14.35;;;;;;;19.32;46.62;100264.13;10319804;28;20077;-76
2022/04/23 14:42:25;;;;;;;21.35;15.25;;;;;;;18.66;47.96;100287.41;10336029;28;20105;-74
2022/04/23 14:47:25;;;;;;;16.40;13.10;;;;;;;18.52;49.06;100258.84;10319070;28;20410;-73
2022/04/23 14:57:45;;;;;;;16.77;13.95;;;;;;;19.28;46.89;100234.47;10335827;28;20121;-75
2022/04/23 15:02:45;;;;;;;14.80;12.95;;;;;;;19.57;46.42;100246.88;10335969;28;20105;-75
2022/04/23 15:07:46;;;;;;;17.80;12.45;;;;;;;19.73;45.52;100246.63;10319321;28;20086;-75
2022/04/23 15:12:47;;;;;;;14.20;12.80;;;;;;;19.56;45.85;100276.25;10318196;28;20117;-74
2022/04/23 15:17:47;;;;;;;17.02;14.00;;;;;;;19.38;45.67;100249.31;10319535;28;20327;-74
2022/04/23 15:22:48;;;;;;;16.20;10.63;;;;;;;19.43;46.20;100258.38;10333977;28;20053;-74
2022/04/23 15:27:54;;;;;;;14.50;11.02;;;;;;;19.00;46.07;100232.19;10335101;28;20066;-74
2022/04/23 15:32:55;;;;;;;13.63;11.27;;;;;;;18.91;46.70;100250.25;10335298;28;20102;-74
2022/04/23 15:37:56;;;;;;;16.73;11.93;;;;;;;18.72;46.83;100247.13;10333721;28;20050;-75
2022/04/23 15:42:56;;;;;;;13.65;12.27;;;;;;;18.66;48.38;100250.94;10333217;28;20035;-75
2022/04/23 15:47:56;;;;;;;17.00;12.02;;;;;;;18.53;47.78;100257.75;10333822;28;20537;-74
2022/04/23 15:52:57;;;;;;;12.15;10.43;;;;;;;18.41;47.82;100246.16;10334304;28;20039;-75
2022/04/23 15:57:57;;;;;;;14.80;12.20;;;;;;;18.25;48.97;100243.34;10333911;28;20038;-74
2022/04/23 16:08:16;;;;;;;20.63;11.82;;;;;;;18.01;47.76;100253.84;10333241;28;20478;-73
2022/04/23 16:13:18;;;;;;;14.75;10.85;;;;;;;18.00;48.38;100248.66;10317152;28;20069;-74
2022/04/23 16:18:18;;;;;;;12.32;9.20;;;;;;;17.92;46.48;100251.84;10316335;28;20030;-74
2022/04/23 16:23:18;;;;;;;12.73;10.65;;;;;;;17.89;46.95;100251.28;10334289;28;20113;-74
2022/04/23 16:28:19;;;;;;;12.60;9.52;;;;;;;17.82;47.04;100242.47;10336105;28;20047;-75
2022/04/23 16:33:20;;;;;;;15.88;10.55;;;;;;;17.66;47.68;100240.66;10323384;28;20037;-75
2022/04/23 16:48:59;;;;;;;10.75;9.70;;;;;;;17.58;47.94;100233.75;10340146;28;20038;-74
2022/04/23 16:53:59;;;;;;;11.45;10.15;;;;;;;17.40;47.79;100242.34;10340886;28;20038;-74
2022/04/23 16:58:59;;;;;;;10.90;9.82;;;;;;;17.30;48.33;100237.59;10340528;28;20049;-75
2022/04/23 17:04:00;;;;;;;15.57;9.85;;;;;;;17.24;48.92;100240.53;10324553;28;20150;-74
2022/04/23 17:09:00;;;;;;;12.02;10.82;;;;;;;17.24;48.99;100252.31;10340354;28;20501;-74
2022/04/23 17:14:01;;;;;;;20.63;9.07;;;;;;;17.12;49.21;100262.56;10339205;28;20034;-75
2022/04/23 17:19:01;;;;;;;15.52;9.52;;;;;;;17.00;49.46;100259.13;10339668;28;20396;-74
2022/04/23 17:24:01;;;;;;;10.52;8.88;;;;;;;16.85;49.21;100251.59;10338566;28;20058;-74
2022/04/23 17:29:02;;;;;;;10.43;8.68;;;;;;;16.85;49.67;100259.81;10305769;28;20080;-74
2022/04/23 17:34:04;;;;;;;14.57;9.40;;;;;;;16.80;50.38;100259.72;10338473;28;20042;-74
2022/04/23 17:39:05;;;;;;;16.70;9.57;;;;;;;16.69;51.54;100266.94;10336458;28;20061;-75
2022/04/23 17:44:07;;;;;;;11.57;10.50;;;;;;;16.60;51.81;100258.34;10342165;28;20026;-74
2022/04/23 17:49:07;;;;;;;10.40;9.40;;;;;;;16.51;51.29;100293.47;10339025;28;20034;-75
2022/04/23 17:54:08;;;;;;;15.75;10.05;;;;;;;16.43;50.70;100266.59;10339339;28;20038;-73
2022/04/23 17:59:08;;;;;;;13.45;10.63;;;;;;;16.31;51.53;100268.59;10338578;28;20463;-74
2022/04/23 18:09:28;;;;;;;9.30;8.20;;;;;;;16.14;52.18;100273.25;10337553;28;20042;-75
2022/04/23 18:14:28;;;;;;;12.68;10.05;;;;;;;16.11;53.16;100290.13;10336513;28;20058;-74
2022/04/23 18:19:30;;;;;;;10.48;8.57;;;;;;;15.97;53.83;100290.47;10338180;28;20117;-74
2022/04/23 18:24:30;;;;;;;14.93;10.63;;;;;;;15.87;54.10;100295.75;10335644;28;20034;-73
2022/04/23 18:29:37;;;;;;;13.63;9.52;;;;;;;15.71;54.22;100302.03;10335979;28;20030;-74
2022/04/23 18:34:38;;;;;;;10.90;9.05;;;;;;;15.64;54.85;100306.81;10336934;28;20360;-74
2022/04/23 18:39:39;;;;;;;11.55;8.43;;;;;;;15.44;54.90;100308.06;10319025;28;20133;-74
2022/04/23 18:44:39;;;;;;;18.52;9.43;;;;;;;15.32;55.45;100304.56;10335576;28;20110;-74
2022/04/23 18:49:40;;;;;;;15.18;9.23;;;;;;;15.25;56.05;100304.72;10319122;28;20042;-74
2022/04/23 18:54:40;;;;;;;10.75;8.63;;;;;;;15.01;56.76;100306.69;10335824;28;20112;-73
2022/04/23 18:59:40;;;;;;;10.43;9.07;;;;;;;14.92;57.22;100316.31;10336093;28;20465;-74
2022/04/23 19:04:41;;;;;;;12.60;11.32;;;;;;;14.82;57.17;100316.91;10335987;28;20041;-76
2022/04/23 19:09:41;;;;;;;10.75;8.15;;;;;;;14.62;58.20;100322.75;10318478;28;20101;-75
2022/04/23 19:14:43;;;;;;;14.82;10.82;;;;;;;14.46;58.60;100328.91;10335459;28;20460;-76
2022/04/23 19:19:45;;;;;;;15.68;9.98;;;;;;;14.39;58.50;100323.56;10335527;28;20041;-75
2022/04/23 19:30:05;;;;;;;11.25;8.68;;;;;;;14.36;58.42;100339.56;10334636;28;20046;-75
2022/04/23 19:35:06;;;;;;;9.55;8.55;;;;;;;14.33;58.34;100338.13;10334820;28;20034;-74
2022/04/23 19:40:07;;;;;;;11.70;7.80;;;;;;;14.35;57.08;100337.88;10316981;28;20082;-74
2022/04/23 19:45:08;;;;;;;8.80;7.70;;;;;;;14.40;57.05;100346.19;10334468;28;20093;-75
2022/04/23 19:50:08;;;;;;;10.05;8.50;;;;;;;14.40;56.96;100338.84;10334424;28;20368;-74
2022/04/23 19:55:13;;;;;;;10.52;9.48;;;;;;;14.40;56.92;100346.19;10334255;28;20386;-74
2022/04/23 20:00:16;;;;;;;9.77;8.10;;;;;;;14.48;56.21;100347.72;10334599;28;20042;-74
2022/04/23 20:05:17;;;;;;;8.73;7.82;;;;;;;14.51;56.10;100348.09;10315874;28;20125;-74
2022/04/23 20:10:18;;;;;;;9.35;7.43;;;;;;;14.47;56.19;100348.78;10334413;28;20061;-76
2022/04/23 20:15:19;;;;;;;7.22;6.45;;;;;;;14.42;56.45;100349.47;10316638;28;20030;-73
2022/04/23 20:20:20;;;;;;;8.15;6.50;;;;;;;14.35;55.99;100352.31;10334418;28;20038;-75
2022/04/23 20:25:20;;;;;;;6.80;6.10;;;;;;;14.28;55.71;100342.63;10317211;28;20146;-75
2022/04/23 20:30:20;;;;;;;12.85;7.43;;;;;;;14.27;55.44;100355.41;10334552;28;20042;-74
2022/04/23 20:40:41;;;;;;;9.55;5.57;;;;;;;14.23;53.13;100356.97;10319095;28;20066;-75
2022/04/23 20:45:42;;;;;;;10.63;5.75;;;;;;;14.26;52.00;100356.47;10333360;28;20042;-74
2022/04/23 20:50:45;;;;;;;4.82;4.18;;;;;;;14.32;50.91;100352.78;10315557;28;20498;-75
2022/04/23 20:55:54;;;;;;;5.18;4.78;;;;;;;14.32;50.73;100365.59;10316495;28;20034;-74
2022/04/23 21:00:54;;;;;;;5.25;4.82;;;;;;;14.28;50.14;100358.97;10316443;28;20128;-75
2022/04/23 21:05:55;;;;;;;9.15;6.97;;;;;;;14.23;50.01;100365.13;10299690;28;20214;-76
2022/04/23 21:10:55;;;;;;;6.57;3.75;;;;;;;14.15;50.72;100360.84;10314875;28;20057;-74
2022/04/23 21:15:56;;;;;;;9.02;4.90;;;;;;;13.92;50.39;100358.91;10338047;28;20042;-74
2022/04/23 21:20:56;;;;;;;4.53;4.10;;;;;;;13.69;50.93;100362.38;10339960;28;20038;-74
2022/04/23 21:25:59;;;;;;;5.95;5.28;;;;;;;13.50;51.87;100363.50;10340982;28;20042;-74
2022/04/23 21:30:59;;;;;;;4.72;4.05;;;;;;;13.33;52.62;100363.28;10322901;28;20042;-75
2022/04/23 21:35:59;;;;;;;10.13;5.72;;;;;;;13.24;53.13;100359.16;10338924;28;20121;-73
2022/04/23 21:46:19;;;;;;;10.23;5.55;;;;;;;13.23;53.25;100365.69;10338570;28;20042;-73
2022/04/23 21:51:19;;;;;;;7.45;4.68;;;;;;;13.19;52.94;100375.34;10341240;28;20034;-74
2022/04/23 21:56:20;;;;;;;5.85;4.38;;;;;;;13.07;53.17;100369.84;10339587;28;20065;-73
2022/04/23 22:01:21;;;;;;;6.18;5.57;;;;;;;12.95;53.84;100382.50;10321199;28;20027;-73
2022/04/23 22:06:21;;;;;;;5.72;4.93;;;;;;;12.83;54.21;100363.44;10321971;28;20042;-73
2022/04/23 22:11:22;;;;;;;10.45;4.63;;;;;;;12.67;54.81;100381.16;10323148;28;20101;-73
2022/04/23 22:16:22;;;;;;;4.90;4.38;;;;;;;12.54;55.18;100381.28;10337433;28;20066;-74
2022/04/23 22:21:23;;;;;;;4.28;3.88;;;;;;;12.42;55.28;100383.06;10337542;28;20066;-74
2022/04/23 22:26:23;;;;;;;4.07;3.83;;;;;;;12.30;55.87;100386.47;10319960;28;20031;-73
2022/04/23 22:31:23;;;;;;;4.15;3.78;;;;;;;12.22;56.26;100380.47;10321244;28;20093;-73
2022/04/23 22:36:24;;;;;;;5.03;4.28;;;;;;;12.17;56.04;100381.16;10336238;28;20470;-75
2022/04/23 22:41:24;;;;;;;5.70;5.03;;;;;;;12.05;56.69;100372.06;10336857;28;20034;-74
2022/04/23 22:46:25;;;;;;;4.28;3.97;;;;;;;12.08;56.66;100377.88;10319135;28;20432;-74
2022/04/23 22:51:25;;;;;;;5.22;4.70;;;;;;;12.03;57.03;100388.59;10336486;28;20042;-75
2022/04/23 22:56:26;;;;;;;6.05;4.63;;;;;;;11.95;57.34;100382.56;10303675;28;20031;-73
2022/04/23 23:01:26;;;;;;;5.43;4.13;;;;;;;11.91;57.85;100382.19;10336203;28;20046;-74
2022/04/23 23:06:27;;;;;;;4.75;4.35;;;;;;;11.93;57.91;100388.22;10334739;28;20043;-75
2022/04/23 23:11:27;;;;;;;10.30;4.78;;;;;;;11.88;58.45;100379.09;10336555;28;20129;-74
2022/04/23 23:16:27;;;;;;;4.45;4.05;;;;;;;11.85;58.65;100389.31;10335440;28;20059;-74
2022/04/23 23:21:28;;;;;;;9.60;5.18;;;;;;;11.80;58.57;100386.38;10335496;28;20470;-74
2022/04/23 23:26:28;;;;;;;6.10;5.32;;;;;;;11.77;58.69;100381.41;10336135;28;20121;-75
2022/04/23 23:31:29;;;;;;;4.22;3.83;;;;;;;11.80;58.28;100390.97;10334627;28;20045;-74
2022/04/23 23:36:29;;;;;;;4.15;3.75;;;;;;;11.80;58.27;100382.84;10334366;28;20407;-74
2022/04/23 23:41:30;;;;;;;5.15;4.70;;;;;;;11.65;58.70;100383.16;10317363;28;20042;-73
2022/04/23 23:46:31;;;;;;;3.88;3.58;;;;;;;11.64;59.16;100389.59;10333749;28;20049;-74
2022/04/23 23:51:31;;;;;;;9.18;5.63;;;;;;;11.56;59.68;100395.31;10317301;28;20046;-75
2022/04/23 23:56:31;;;;;;;6.25;5.07;;;;;;;11.44;60.29;100397.84;10335476;28;20370;-73
